Tropical Cyclones
[Index]
Main Index Home Page Stock Weather Photos Extreme Storms Discussion Storm News and Storm Chasing Reports Tropical Cyclones / Hurricanes / Typhoons Weather Data and Links Wild Fires / Bushfires Weather Observation Techniques Weather Picture Catalogue Tornado Pictures and Reports Stock Video Footage and DVDs for sale
Season 2015-2016 Tropical Cyclone 201602 Track Map
Season 2015-2016 Summaries: [BoM-AU] [JTWC-AU] [JTWC-SIO] [JTWC-SPAC] [JTWC-SH]
<<- Previous TC | JTWC 2015-2016 Season | Next TC ->>

click for intensity scale information  Lat/long Grid: Show Hide

 Date Labels: Show Hide

Joint Typhoon Warning Centre Cyclone Data

Name: 201602

13 Oct 2015 00:00 UTC to 18 Oct 2015 06:00 UTC

    date/time    lat    long     hPa   cat  kts
2015-10-13 00   10.3   174.5    1004         25          
2015-10-13 06   10.6   174.7    1004         25          
2015-10-13 12   10.9   174.8    1004         25          
2015-10-13 18   11.2   174.9    1004         25          
2015-10-14 00   11.4   175.0    1004         25          
2015-10-14 06   11.6   175.2    1004         25          
2015-10-14 12   11.8   175.5    1007         30          
2015-10-14 18   12.0   176.2    1000         30          
2015-10-15 00   12.1   176.8    1000         30          
2015-10-15 06   12.1   177.2    1000         30          
2015-10-15 12   11.9   177.6    1000         30          
2015-10-15 18   12.1   177.7    1000         30          
2015-10-16 00   12.5   177.5    1000         30          
2015-10-16 06   12.9   177.0    1000         30          
2015-10-16 12   13.5   176.1    1000         30          
2015-10-16 18   14.2   175.1     996         35          
2015-10-17 00   15.2   174.0     996         35          
2015-10-17 06   16.1   173.1     996         35          
2015-10-17 12   17.0   172.3     996         35          
2015-10-17 18   18.0   171.6    1000         30          
2015-10-18 00   19.3   171.0    1004         25          
2015-10-18 06   20.5   170.9    1007         20          
Winds are 1-min average.

Tropical cyclone tracks developed by Michael Bath using data from the Joint Typhoon Warning Centre Best Tracks and Google Maps.


[Australian Severe Weather index] [Copyright Notice] [Email Contacts] [Search This Site] [Privacy Policy]
Document: tropical_cyclone_201602.htm Updated: 28 June 2017